sensor_id;sensor_type;location;lat;lon;timestamp;temperature;humidity
49132;DHT22;35149;51.196;6.204;2023-04-03T00:02:32;5.50;62.80
49132;DHT22;35149;51.196;6.204;2023-04-03T00:05:01;5.40;62.80
49132;DHT22;35149;51.196;6.204;2023-04-03T00:07:34;5.40;62.80
49132;DHT22;35149;51.196;6.204;2023-04-03T00:10:19;5.40;62.90
49132;DHT22;35149;51.196;6.204;2023-04-03T00:12:54;5.40;63.10
49132;DHT22;35149;51.196;6.204;2023-04-03T00:15:27;5.40;63.10
49132;DHT22;35149;51.196;6.204;2023-04-03T00:17:54;5.40;63.10
49132;DHT22;35149;51.196;6.204;2023-04-03T00:20:28;5.30;63.10
49132;DHT22;35149;51.196;6.204;2023-04-03T00:23:09;5.30;63.20
49132;DHT22;35149;51.196;6.204;2023-04-03T00:25:40;5.30;62.90
49132;DHT22;35149;51.196;6.204;2023-04-03T00:28:19;5.30;62.90
49132;DHT22;35149;51.196;6.204;2023-04-03T00:30:56;5.20;63.10
49132;DHT22;35149;51.196;6.204;2023-04-03T00:33:37;5.20;63.10
49132;DHT22;35149;51.196;6.204;2023-04-03T00:36:10;5.20;63.10
49132;DHT22;35149;51.196;6.204;2023-04-03T00:38:45;5.20;63.10
49132;DHT22;35149;51.196;6.204;2023-04-03T00:41:14;5.20;63.20
49132;DHT22;35149;51.196;6.204;2023-04-03T00:43:50;5.10;63.10
49132;DHT22;35149;51.196;6.204;2023-04-03T00:46:22;5.10;63.10
49132;DHT22;35149;51.196;6.204;2023-04-03T00:49:09;5.10;63.20
49132;DHT22;35149;51.196;6.204;2023-04-03T00:51:42;5.10;63.30
49132;DHT22;35149;51.196;6.204;2023-04-03T00:54:11;5.10;64.00
49132;DHT22;35149;51.196;6.204;2023-04-03T00:56:45;5.10;63.50
49132;DHT22;35149;51.196;6.204;2023-04-03T00:59:18;5.00;63.10
49132;DHT22;35149;51.196;6.204;2023-04-03T01:02:01;5.00;63.20
49132;DHT22;35149;51.196;6.204;2023-04-03T01:04:56;5.00;63.40
49132;DHT22;35149;51.196;6.204;2023-04-03T01:07:33;4.90;63.20
49132;DHT22;35149;51.196;6.204;2023-04-03T01:10:15;4.90;63.30
49132;DHT22;35149;51.196;6.204;2023-04-03T01:12:52;4.90;63.30
49132;DHT22;35149;51.196;6.204;2023-04-03T01:15:29;4.90;63.40
49132;DHT22;35149;51.196;6.204;2023-04-03T01:18:11;4.90;63.40
49132;DHT22;35149;51.196;6.204;2023-04-03T01:24:20;4.80;63.50
49132;DHT22;35149;51.196;6.204;2023-04-03T01:26:57;4.80;63.50
49132;DHT22;35149;51.196;6.204;2023-04-03T01:29:30;4.80;63.50
49132;DHT22;35149;51.196;6.204;2023-04-03T01:32:06;4.80;63.50
49132;DHT22;35149;51.196;6.204;2023-04-03T01:34:39;4.70;63.50
49132;DHT22;35149;51.196;6.204;2023-04-03T01:37:41;4.70;63.60
49132;DHT22;35149;51.196;6.204;2023-04-03T01:40:14;4.70;63.60
49132;DHT22;35149;51.196;6.204;2023-04-03T01:42:54;4.70;63.60
49132;DHT22;35149;51.196;6.204;2023-04-03T01:45:36;4.70;63.60
49132;DHT22;35149;51.196;6.204;2023-04-03T01:48:10;4.70;63.70
49132;DHT22;35149;51.196;6.204;2023-04-03T01:51:06;4.60;63.60
49132;DHT22;35149;51.196;6.204;2023-04-03T01:53:39;4.60;63.60
49132;DHT22;35149;51.196;6.204;2023-04-03T01:56:10;4.60;63.70
49132;DHT22;35149;51.196;6.204;2023-04-03T01:59:12;4.60;63.70
49132;DHT22;35149;51.196;6.204;2023-04-03T02:01:51;4.60;63.70
49132;DHT22;35149;51.196;6.204;2023-04-03T02:04:26;4.50;63.70
49132;DHT22;35149;51.196;6.204;2023-04-03T02:07:02;4.50;63.80
49132;DHT22;35149;51.196;6.204;2023-04-03T02:09:37;4.50;63.90
49132;DHT22;35149;51.196;6.204;2023-04-03T02:12:07;4.50;63.90
49132;DHT22;35149;51.196;6.204;2023-04-03T02:14:45;4.50;64.00
49132;DHT22;35149;51.196;6.204;2023-04-03T02:17:19;4.50;64.10
49132;DHT22;35149;51.196;6.204;2023-04-03T02:19:59;4.50;64.00
49132;DHT22;35149;51.196;6.204;2023-04-03T02:22:34;4.50;64.10
49132;DHT22;35149;51.196;6.204;2023-04-03T02:25:19;4.50;64.00
49132;DHT22;35149;51.196;6.204;2023-04-03T02:28:07;4.40;63.90
49132;DHT22;35149;51.196;6.204;2023-04-03T02:30:36;4.40;64.00
49132;DHT22;35149;51.196;6.204;2023-04-03T02:33:15;4.40;64.00
49132;DHT22;35149;51.196;6.204;2023-04-03T02:35:57;4.40;64.00
49132;DHT22;35149;51.196;6.204;2023-04-03T02:38:46;4.40;64.10
49132;DHT22;35149;51.196;6.204;2023-04-03T02:41:20;4.40;64.10
49132;DHT22;35149;51.196;6.204;2023-04-03T02:44:10;4.40;64.10
49132;DHT22;35149;51.196;6.204;2023-04-03T02:46:59;4.30;64.00
49132;DHT22;35149;51.196;6.204;2023-04-03T02:49:33;4.30;64.00
49132;DHT22;35149;51.196;6.204;2023-04-03T02:52:14;4.30;64.60
49132;DHT22;35149;51.196;6.204;2023-04-03T02:55:06;4.30;64.00
49132;DHT22;35149;51.196;6.204;2023-04-03T02:57:48;4.30;64.00
49132;DHT22;35149;51.196;6.204;2023-04-03T03:00:22;4.20;64.00
49132;DHT22;35149;51.196;6.204;2023-04-03T03:03:01;4.20;64.00
49132;DHT22;35149;51.196;6.204;2023-04-03T03:05:48;4.20;64.20
49132;DHT22;35149;51.196;6.204;2023-04-03T03:08:24;4.20;64.10
49132;DHT22;35149;51.196;6.204;2023-04-03T03:10:54;4.20;64.10
49132;DHT22;35149;51.196;6.204;2023-04-03T03:13:31;4.20;64.80
49132;DHT22;35149;51.196;6.204;2023-04-03T03:16:03;4.10;64.10
49132;DHT22;35149;51.196;6.204;2023-04-03T03:18:53;4.10;64.10
49132;DHT22;35149;51.196;6.204;2023-04-03T03:21:29;4.10;64.20
49132;DHT22;35149;51.196;6.204;2023-04-03T03:24:09;4.10;64.10
49132;DHT22;35149;51.196;6.204;2023-04-03T03:26:47;4.10;64.20
49132;DHT22;35149;51.196;6.204;2023-04-03T03:29:21;4.10;64.20
49132;DHT22;35149;51.196;6.204;2023-04-03T03:32:00;4.10;64.30
49132;DHT22;35149;51.196;6.204;2023-04-03T03:34:32;4.00;64.20
49132;DHT22;35149;51.196;6.204;2023-04-03T03:37:30;4.00;64.20
49132;DHT22;35149;51.196;6.204;2023-04-03T03:40:07;4.00;64.20
49132;DHT22;35149;51.196;6.204;2023-04-03T03:42:38;4.00;64.30
49132;DHT22;35149;51.196;6.204;2023-04-03T03:45:07;4.00;64.40
49132;DHT22;35149;51.196;6.204;2023-04-03T03:47:42;4.00;64.40
49132;DHT22;35149;51.196;6.204;2023-04-03T03:50:28;4.00;64.50
49132;DHT22;35149;51.196;6.204;2023-04-03T03:53:07;4.00;64.70
49132;DHT22;35149;51.196;6.204;2023-04-03T03:56:06;4.00;64.90
49132;DHT22;35149;51.196;6.204;2023-04-03T03:58:41;4.00;64.90
49132;DHT22;35149;51.196;6.204;2023-04-03T04:01:20;4.00;64.90
49132;DHT22;35149;51.196;6.204;2023-04-03T04:03:59;4.00;64.90
49132;DHT22;35149;51.196;6.204;2023-04-03T04:06:33;4.00;64.90
49132;DHT22;35149;51.196;6.204;2023-04-03T04:09:11;4.00;64.90
49132;DHT22;35149;51.196;6.204;2023-04-03T04:11:40;4.00;64.80
49132;DHT22;35149;51.196;6.204;2023-04-03T04:14:16;4.00;64.90
49132;DHT22;35149;51.196;6.204;2023-04-03T04:16:51;4.00;64.90
49132;DHT22;35149;51.196;6.204;2023-04-03T04:19:35;4.00;64.80
49132;DHT22;35149;51.196;6.204;2023-04-03T04:22:03;4.00;64.80
49132;DHT22;35149;51.196;6.204;2023-04-03T04:24:35;4.00;64.80
49132;DHT22;35149;51.196;6.204;2023-04-03T04:27:12;3.90;64.80
49132;DHT22;35149;51.196;6.204;2023-04-03T04:30:00;4.00;64.90
49132;DHT22;35149;51.196;6.204;2023-04-03T04:32:30;4.00;65.00
49132;DHT22;35149;51.196;6.204;2023-04-03T04:35:14;4.00;64.90
49132;DHT22;35149;51.196;6.204;2023-04-03T04:37:54;3.90;64.90
49132;DHT22;35149;51.196;6.204;2023-04-03T04:40:34;3.90;64.90
49132;DHT22;35149;51.196;6.204;2023-04-03T04:43:11;4.00;65.10
49132;DHT22;35149;51.196;6.204;2023-04-03T04:46:10;3.90;65.00
49132;DHT22;35149;51.196;6.204;2023-04-03T04:48:45;3.90;65.10
49132;DHT22;35149;51.196;6.204;2023-04-03T04:51:13;3.90;65.00
49132;DHT22;35149;51.196;6.204;2023-04-03T04:53:41;3.90;65.10
49132;DHT22;35149;51.196;6.204;2023-04-03T04:56:14;3.90;65.00
49132;DHT22;35149;51.196;6.204;2023-04-03T04:58:41;3.90;65.10
49132;DHT22;35149;51.196;6.204;2023-04-03T05:01:11;3.90;65.10
49132;DHT22;35149;51.196;6.204;2023-04-03T05:03:49;3.80;65.00
49132;DHT22;35149;51.196;6.204;2023-04-03T05:06:24;3.80;64.90
49132;DHT22;35149;51.196;6.204;2023-04-03T05:08:51;3.80;64.90
49132;DHT22;35149;51.196;6.204;2023-04-03T05:11:19;3.80;64.90
49132;DHT22;35149;51.196;6.204;2023-04-03T05:13:53;3.80;64.90
49132;DHT22;35149;51.196;6.204;2023-04-03T05:16:21;3.80;65.00
49132;DHT22;35149;51.196;6.204;2023-04-03T05:18:52;3.80;65.00
49132;DHT22;35149;51.196;6.204;2023-04-03T05:21:21;3.80;65.10
49132;DHT22;35149;51.196;6.204;2023-04-03T05:23:51;3.70;65.10
49132;DHT22;35149;51.196;6.204;2023-04-03T05:26:18;3.70;65.30
49132;DHT22;35149;51.196;6.204;2023-04-03T05:28:48;3.80;65.60
49132;DHT22;35149;51.196;6.204;2023-04-03T05:31:15;3.70;65.60
49132;DHT22;35149;51.196;6.204;2023-04-03T05:33:49;3.70;65.80
49132;DHT22;35149;51.196;6.204;2023-04-03T05:36:17;3.80;66.00
49132;DHT22;35149;51.196;6.204;2023-04-03T05:38:48;3.80;66.00
49132;DHT22;35149;51.196;6.204;2023-04-03T05:41:15;3.80;66.10
49132;DHT22;35149;51.196;6.204;2023-04-03T05:43:44;3.80;66.20
49132;DHT22;35149;51.196;6.204;2023-04-03T05:46:17;3.90;66.40
49132;DHT22;35149;51.196;6.204;2023-04-03T05:48:46;3.90;66.50
49132;DHT22;35149;51.196;6.204;2023-04-03T05:51:28;3.90;66.40
49132;DHT22;35149;51.196;6.204;2023-04-03T05:54:06;4.00;66.50
49132;DHT22;35149;51.196;6.204;2023-04-03T05:56:35;4.00;66.60
49132;DHT22;35149;51.196;6.204;2023-04-03T05:59:05;4.00;66.60
49132;DHT22;35149;51.196;6.204;2023-04-03T06:01:31;4.10;66.80
49132;DHT22;35149;51.196;6.204;2023-04-03T06:04:02;4.10;66.90
49132;DHT22;35149;51.196;6.204;2023-04-03T06:09:17;4.20;67.30
49132;DHT22;35149;51.196;6.204;2023-04-03T06:11:44;4.20;66.90
49132;DHT22;35149;51.196;6.204;2023-04-03T06:14:11;4.30;67.00
49132;DHT22;35149;51.196;6.204;2023-04-03T06:16:38;4.30;67.00
49132;DHT22;35149;51.196;6.204;2023-04-03T06:19:12;4.40;67.10
49132;DHT22;35149;51.196;6.204;2023-04-03T06:21:44;4.40;67.20
49132;DHT22;35149;51.196;6.204;2023-04-03T06:24:14;4.40;67.00
49132;DHT22;35149;51.196;6.204;2023-04-03T06:26:41;4.50;67.20
49132;DHT22;35149;51.196;6.204;2023-04-03T06:29:10;4.50;67.10
49132;DHT22;35149;51.196;6.204;2023-04-03T06:31:37;4.60;67.20
49132;DHT22;35149;51.196;6.204;2023-04-03T06:34:06;4.60;67.20
49132;DHT22;35149;51.196;6.204;2023-04-03T06:36:41;4.70;67.30
49132;DHT22;35149;51.196;6.204;2023-04-03T06:39:15;4.70;67.20
49132;DHT22;35149;51.196;6.204;2023-04-03T06:41:42;4.80;67.30
49132;DHT22;35149;51.196;6.204;2023-04-03T06:44:09;4.80;67.20
49132;DHT22;35149;51.196;6.204;2023-04-03T06:46:38;4.80;67.10
49132;DHT22;35149;51.196;6.204;2023-04-03T06:49:05;4.90;67.10
49132;DHT22;35149;51.196;6.204;2023-04-03T06:51:36;4.90;67.00
49132;DHT22;35149;51.196;6.204;2023-04-03T06:54:04;5.00;67.00
49132;DHT22;35149;51.196;6.204;2023-04-03T06:56:35;5.00;66.80
49132;DHT22;35149;51.196;6.204;2023-04-03T06:59:05;5.00;66.90
49132;DHT22;35149;51.196;6.204;2023-04-03T07:01:31;5.10;66.90
49132;DHT22;35149;51.196;6.204;2023-04-03T07:03:58;5.10;66.80
49132;DHT22;35149;51.196;6.204;2023-04-03T07:06:28;5.20;66.80
49132;DHT22;35149;51.196;6.204;2023-04-03T07:08:56;5.20;66.80
49132;DHT22;35149;51.196;6.204;2023-04-03T07:11:27;5.30;66.80
49132;DHT22;35149;51.196;6.204;2023-04-03T07:13:53;5.30;66.70
49132;DHT22;35149;51.196;6.204;2023-04-03T07:16:20;5.40;66.50
49132;DHT22;35149;51.196;6.204;2023-04-03T07:18:49;5.40;66.50
49132;DHT22;35149;51.196;6.204;2023-04-03T07:21:17;5.40;66.50
49132;DHT22;35149;51.196;6.204;2023-04-03T07:23:44;5.50;66.40
49132;DHT22;35149;51.196;6.204;2023-04-03T07:26:12;5.50;66.20
49132;DHT22;35149;51.196;6.204;2023-04-03T07:28:39;5.60;66.20
49132;DHT22;35149;51.196;6.204;2023-04-03T07:31:13;5.60;66.00
49132;DHT22;35149;51.196;6.204;2023-04-03T07:33:44;5.70;65.90
49132;DHT22;35149;51.196;6.204;2023-04-03T07:36:16;5.70;65.70
49132;DHT22;35149;51.196;6.204;2023-04-03T07:38:45;5.80;65.70
49132;DHT22;35149;51.196;6.204;2023-04-03T07:41:15;5.80;65.50
49132;DHT22;35149;51.196;6.204;2023-04-03T07:43:44;5.80;65.50
49132;DHT22;35149;51.196;6.204;2023-04-03T07:46:11;5.90;65.60
49132;DHT22;35149;51.196;6.204;2023-04-03T07:48:40;6.00;65.60
49132;DHT22;35149;51.196;6.204;2023-04-03T07:51:09;6.00;65.60
49132;DHT22;35149;51.196;6.204;2023-04-03T07:53:36;6.00;65.50
49132;DHT22;35149;51.196;6.204;2023-04-03T07:56:03;6.00;65.30
49132;DHT22;35149;51.196;6.204;2023-04-03T07:58:30;6.10;65.20
49132;DHT22;35149;51.196;6.204;2023-04-03T08:00:57;6.20;65.10
49132;DHT22;35149;51.196;6.204;2023-04-03T08:03:26;6.20;65.10
49132;DHT22;35149;51.196;6.204;2023-04-03T08:05:53;6.20;65.00
49132;DHT22;35149;51.196;6.204;2023-04-03T08:08:23;6.30;64.90
49132;DHT22;35149;51.196;6.204;2023-04-03T08:10:53;6.30;64.70
49132;DHT22;35149;51.196;6.204;2023-04-03T08:13:23;6.40;64.30
49132;DHT22;35149;51.196;6.204;2023-04-03T08:15:49;6.40;64.10
49132;DHT22;35149;51.196;6.204;2023-04-03T08:18:17;6.50;63.80
49132;DHT22;35149;51.196;6.204;2023-04-03T08:20:48;6.50;63.50
49132;DHT22;35149;51.196;6.204;2023-04-03T08:23:17;6.60;63.20
49132;DHT22;35149;51.196;6.204;2023-04-03T08:25:46;6.60;63.00
49132;DHT22;35149;51.196;6.204;2023-04-03T08:28:14;6.70;62.50
49132;DHT22;35149;51.196;6.204;2023-04-03T08:30:42;6.80;62.10
49132;DHT22;35149;51.196;6.204;2023-04-03T08:33:09;6.80;61.60
49132;DHT22;35149;51.196;6.204;2023-04-03T08:35:41;6.80;61.30
49132;DHT22;35149;51.196;6.204;2023-04-03T08:38:15;6.90;61.10
49132;DHT22;35149;51.196;6.204;2023-04-03T08:40:44;7.00;60.70
49132;DHT22;35149;51.196;6.204;2023-04-03T08:43:33;7.00;60.80
49132;DHT22;35149;51.196;6.204;2023-04-03T08:46:05;7.10;59.80
49132;DHT22;35149;51.196;6.204;2023-04-03T08:48:40;7.10;59.60
49132;DHT22;35149;51.196;6.204;2023-04-03T08:51:15;7.20;58.80
49132;DHT22;35149;51.196;6.204;2023-04-03T08:53:51;7.20;58.40
49132;DHT22;35149;51.196;6.204;2023-04-03T08:56:24;7.30;58.40
49132;DHT22;35149;51.196;6.204;2023-04-03T08:59:05;7.30;58.00
49132;DHT22;35149;51.196;6.204;2023-04-03T09:01:40;7.40;57.10
49132;DHT22;35149;51.196;6.204;2023-04-03T09:04:15;7.40;57.20
49132;DHT22;35149;51.196;6.204;2023-04-03T09:06:49;7.40;56.60
49132;DHT22;35149;51.196;6.204;2023-04-03T09:17:02;7.70;55.70
49132;DHT22;35149;51.196;6.204;2023-04-03T09:22:25;7.70;55.20
49132;DHT22;35149;51.196;6.204;2023-04-03T09:27:24;7.80;54.20
49132;DHT22;35149;51.196;6.204;2023-04-03T09:29:55;7.80;54.30
49132;DHT22;35149;51.196;6.204;2023-04-03T09:32:34;7.90;53.80
49132;DHT22;35149;51.196;6.204;2023-04-03T09:35:16;8.00;52.70
49132;DHT22;35149;51.196;6.204;2023-04-03T09:40:31;8.00;52.60
49132;DHT22;35149;51.196;6.204;2023-04-03T09:43:18;8.10;53.10
49132;DHT22;35149;51.196;6.204;2023-04-03T09:45:47;8.10;53.10
49132;DHT22;35149;51.196;6.204;2023-04-03T09:48:25;8.20;53.00
49132;DHT22;35149;51.196;6.204;2023-04-03T09:50:58;8.20;52.60
49132;DHT22;35149;51.196;6.204;2023-04-03T09:53:33;8.30;52.10
49132;DHT22;35149;51.196;6.204;2023-04-03T09:56:02;8.30;52.60
49132;DHT22;35149;51.196;6.204;2023-04-03T10:01:35;8.40;52.20
49132;DHT22;35149;51.196;6.204;2023-04-03T10:06:42;8.50;50.80
49132;DHT22;35149;51.196;6.204;2023-04-03T10:09:31;8.60;51.00
49132;DHT22;35149;51.196;6.204;2023-04-03T10:14:36;8.70;50.40
49132;DHT22;35149;51.196;6.204;2023-04-03T10:17:25;8.80;50.20
49132;DHT22;35149;51.196;6.204;2023-04-03T10:22:39;8.90;49.60
49132;DHT22;35149;51.196;6.204;2023-04-03T10:28:08;9.00;48.90
49132;DHT22;35149;51.196;6.204;2023-04-03T10:43:02;9.20;48.80
49132;DHT22;35149;51.196;6.204;2023-04-03T10:46:07;9.30;49.70
49132;DHT22;35149;51.196;6.204;2023-04-03T10:49:19;9.30;49.00
49132;DHT22;35149;51.196;6.204;2023-04-03T10:51:53;9.30;49.00
49132;DHT22;35149;51.196;6.204;2023-04-03T10:54:25;9.40;49.50
49132;DHT22;35149;51.196;6.204;2023-04-03T10:56:57;9.40;49.80
49132;DHT22;35149;51.196;6.204;2023-04-03T10:59:55;9.40;49.20
49132;DHT22;35149;51.196;6.204;2023-04-03T11:02:33;9.50;48.70
49132;DHT22;35149;51.196;6.204;2023-04-03T11:05:15;9.50;48.30
49132;DHT22;35149;51.196;6.204;2023-04-03T11:07:49;9.60;49.20
49132;DHT22;35149;51.196;6.204;2023-04-03T11:13:12;9.60;48.40
49132;DHT22;35149;51.196;6.204;2023-04-03T11:15:39;9.70;48.40
49132;DHT22;35149;51.196;6.204;2023-04-03T11:18:15;9.70;49.20
49132;DHT22;35149;51.196;6.204;2023-04-03T11:21:06;9.80;48.80
49132;DHT22;35149;51.196;6.204;2023-04-03T11:23:36;9.90;47.60
49132;DHT22;35149;51.196;6.204;2023-04-03T11:26:18;9.90;48.70
49132;DHT22;35149;51.196;6.204;2023-04-03T11:28:45;10.00;48.70
49132;DHT22;35149;51.196;6.204;2023-04-03T11:34:29;10.10;47.90
49132;DHT22;35149;51.196;6.204;2023-04-03T11:37:02;10.10;48.10
49132;DHT22;35149;51.196;6.204;2023-04-03T11:39:34;10.20;49.40
49132;DHT22;35149;51.196;6.204;2023-04-03T11:47:52;10.30;48.50
49132;DHT22;35149;51.196;6.204;2023-04-03T11:50:50;10.40;48.50
49132;DHT22;35149;51.196;6.204;2023-04-03T11:53:25;10.40;47.70
49132;DHT22;35149;51.196;6.204;2023-04-03T11:55:59;10.50;48.70
49132;DHT22;35149;51.196;6.204;2023-04-03T11:58:32;10.50;48.80
49132;DHT22;35149;51.196;6.204;2023-04-03T12:08:52;10.80;47.80
49132;DHT22;35149;51.196;6.204;2023-04-03T12:11:28;10.80;48.30
49132;DHT22;35149;51.196;6.204;2023-04-03T12:16:29;11.00;47.70
49132;DHT22;35149;51.196;6.204;2023-04-03T12:19:03;11.00;47.10
49132;DHT22;35149;51.196;6.204;2023-04-03T12:32:15;11.30;47.80
49132;DHT22;35149;51.196;6.204;2023-04-03T12:41:02;11.50;46.40
49132;DHT22;35149;51.196;6.204;2023-04-03T12:51:26;11.70;45.40
49132;DHT22;35149;51.196;6.204;2023-04-03T12:54:02;11.80;45.70
49132;DHT22;35149;51.196;6.204;2023-04-03T12:56:34;11.90;45.50
49132;DHT22;35149;51.196;6.204;2023-04-03T12:59:18;11.90;45.70
49132;DHT22;35149;51.196;6.204;2023-04-03T13:01:58;12.00;45.10
49132;DHT22;35149;51.196;6.204;2023-04-03T13:04:34;12.10;45.00
49132;DHT22;35149;51.196;6.204;2023-04-03T13:07:02;12.10;45.50
49132;DHT22;35149;51.196;6.204;2023-04-03T13:09:31;12.20;45.50
49132;DHT22;35149;51.196;6.204;2023-04-03T13:12:10;12.30;45.10
49132;DHT22;35149;51.196;6.204;2023-04-03T13:14:38;12.40;44.60
49132;DHT22;35149;51.196;6.204;2023-04-03T13:17:14;12.40;45.30
49132;DHT22;35149;51.196;6.204;2023-04-03T13:19:44;12.50;45.30
49132;DHT22;35149;51.196;6.204;2023-04-03T13:22:32;12.60;45.00
49132;DHT22;35149;51.196;6.204;2023-04-03T13:25:05;12.70;43.60
49132;DHT22;35149;51.196;6.204;2023-04-03T13:27:33;12.80;44.40
49132;DHT22;35149;51.196;6.204;2023-04-03T13:30:01;12.90;44.40
49132;DHT22;35149;51.196;6.204;2023-04-03T13:32:31;13.00;43.90
49132;DHT22;35149;51.196;6.204;2023-04-03T13:34:58;13.00;43.60
49132;DHT22;35149;51.196;6.204;2023-04-03T13:37:55;13.10;43.60
49132;DHT22;35149;51.196;6.204;2023-04-03T13:40:23;13.30;43.10
49132;DHT22;35149;51.196;6.204;2023-04-03T13:43:20;13.40;43.50
49132;DHT22;35149;51.196;6.204;2023-04-03T13:48:48;14.30;43.80
49132;DHT22;35149;51.196;6.204;2023-04-03T13:51:38;15.30;44.50
49132;DHT22;35149;51.196;6.204;2023-04-03T13:54:37;16.50;44.20
49132;DHT22;35149;51.196;6.204;2023-04-03T13:57:15;17.90;44.80
49132;DHT22;35149;51.196;6.204;2023-04-03T13:59:47;19.50;42.30
49132;DHT22;35149;51.196;6.204;2023-04-03T14:02:18;20.70;41.30
49132;DHT22;35149;51.196;6.204;2023-04-03T14:04:49;21.90;39.30
49132;DHT22;35149;51.196;6.204;2023-04-03T14:07:22;22.90;38.50
49132;DHT22;35149;51.196;6.204;2023-04-03T14:09:50;24.00;38.20
49132;DHT22;35149;51.196;6.204;2023-04-03T14:12:36;25.10;36.90
49132;DHT22;35149;51.196;6.204;2023-04-03T14:15:15;26.10;33.90
49132;DHT22;35149;51.196;6.204;2023-04-03T14:17:42;27.20;33.10
49132;DHT22;35149;51.196;6.204;2023-04-03T14:20:16;28.00;33.20
49132;DHT22;35149;51.196;6.204;2023-04-03T14:22:43;28.90;30.30
49132;DHT22;35149;51.196;6.204;2023-04-03T14:25:10;29.60;31.10
49132;DHT22;35149;51.196;6.204;2023-04-03T14:27:40;30.30;30.00
49132;DHT22;35149;51.196;6.204;2023-04-03T14:30:32;31.00;29.30
49132;DHT22;35149;51.196;6.204;2023-04-03T14:33:01;31.60;30.10
49132;DHT22;35149;51.196;6.204;2023-04-03T14:35:33;32.20;28.80
49132;DHT22;35149;51.196;6.204;2023-04-03T14:38:23;32.50;27.20
49132;DHT22;35149;51.196;6.204;2023-04-03T14:41:15;32.90;27.30
49132;DHT22;35149;51.196;6.204;2023-04-03T14:43:59;33.30;26.30
49132;DHT22;35149;51.196;6.204;2023-04-03T14:46:37;33.60;27.30
49132;DHT22;35149;51.196;6.204;2023-04-03T14:49:30;34.00;26.50
49132;DHT22;35149;51.196;6.204;2023-04-03T14:52:26;34.10;25.50
49132;DHT22;35149;51.196;6.204;2023-04-03T14:55:13;34.40;25.30
49132;DHT22;35149;51.196;6.204;2023-04-03T14:57:43;34.60;25.60
49132;DHT22;35149;51.196;6.204;2023-04-03T15:00:27;34.80;25.70
49132;DHT22;35149;51.196;6.204;2023-04-03T15:03:03;35.00;24.70
49132;DHT22;35149;51.196;6.204;2023-04-03T15:05:50;35.20;24.40
49132;DHT22;35149;51.196;6.204;2023-04-03T15:08:25;35.20;24.50
49132;DHT22;35149;51.196;6.204;2023-04-03T15:10:58;35.20;24.10
49132;DHT22;35149;51.196;6.204;2023-04-03T15:13:38;35.10;23.80
49132;DHT22;35149;51.196;6.204;2023-04-03T15:16:19;35.00;23.80
49132;DHT22;35149;51.196;6.204;2023-04-03T15:18:55;34.90;23.00
49132;DHT22;35149;51.196;6.204;2023-04-03T15:21:32;34.90;23.30
49132;DHT22;35149;51.196;6.204;2023-04-03T15:24:06;34.90;23.60
49132;DHT22;35149;51.196;6.204;2023-04-03T15:26:33;34.90;23.10
49132;DHT22;35149;51.196;6.204;2023-04-03T15:29:08;35.00;23.30
49132;DHT22;35149;51.196;6.204;2023-04-03T15:31:44;35.00;23.40
49132;DHT22;35149;51.196;6.204;2023-04-03T15:34:19;35.20;22.80
49132;DHT22;35149;51.196;6.204;2023-04-03T15:36:50;35.20;22.80
49132;DHT22;35149;51.196;6.204;2023-04-03T15:39:19;35.20;22.80
49132;DHT22;35149;51.196;6.204;2023-04-03T15:41:49;35.30;22.90
49132;DHT22;35149;51.196;6.204;2023-04-03T15:44:18;35.30;22.80
49132;DHT22;35149;51.196;6.204;2023-04-03T15:46:54;35.30;22.40
49132;DHT22;35149;51.196;6.204;2023-04-03T15:49:23;35.40;22.40
49132;DHT22;35149;51.196;6.204;2023-04-03T15:52:08;35.40;22.20
49132;DHT22;35149;51.196;6.204;2023-04-03T15:54:36;35.40;22.10
49132;DHT22;35149;51.196;6.204;2023-04-03T15:57:08;35.40;22.30
49132;DHT22;35149;51.196;6.204;2023-04-03T15:59:37;35.20;21.90
49132;DHT22;35149;51.196;6.204;2023-04-03T16:02:16;35.10;21.90
49132;DHT22;35149;51.196;6.204;2023-04-03T16:04:48;35.00;21.80
49132;DHT22;35149;51.196;6.204;2023-04-03T16:07:22;34.90;21.80
49132;DHT22;35149;51.196;6.204;2023-04-03T16:09:57;34.80;21.80
49132;DHT22;35149;51.196;6.204;2023-04-03T16:12:32;34.60;21.60
49132;DHT22;35149;51.196;6.204;2023-04-03T16:15:07;34.40;21.70
49132;DHT22;35149;51.196;6.204;2023-04-03T16:17:40;33.90;21.50
49132;DHT22;35149;51.196;6.204;2023-04-03T16:20:18;33.30;21.10
49132;DHT22;35149;51.196;6.204;2023-04-03T16:22:49;32.50;21.00
49132;DHT22;35149;51.196;6.204;2023-04-03T16:25:25;31.60;20.90
49132;DHT22;35149;51.196;6.204;2023-04-03T16:27:52;30.50;21.10
49132;DHT22;35149;51.196;6.204;2023-04-03T16:30:21;29.60;21.50
49132;DHT22;35149;51.196;6.204;2023-04-03T16:32:53;28.70;21.70
49132;DHT22;35149;51.196;6.204;2023-04-03T16:35:22;27.80;22.20
49132;DHT22;35149;51.196;6.204;2023-04-03T16:37:51;27.10;22.30
49132;DHT22;35149;51.196;6.204;2023-04-03T16:40:20;26.50;22.60
49132;DHT22;35149;51.196;6.204;2023-04-03T16:42:50;26.00;22.70
49132;DHT22;35149;51.196;6.204;2023-04-03T16:45:21;25.60;22.80
49132;DHT22;35149;51.196;6.204;2023-04-03T16:47:49;25.30;23.30
49132;DHT22;35149;51.196;6.204;2023-04-03T16:50:17;25.10;23.40
49132;DHT22;35149;51.196;6.204;2023-04-03T16:52:46;25.00;23.80
49132;DHT22;35149;51.196;6.204;2023-04-03T16:55:16;25.00;23.90
49132;DHT22;35149;51.196;6.204;2023-04-03T16:57:45;25.20;24.10
49132;DHT22;35149;51.196;6.204;2023-04-03T17:00:15;25.50;24.00
49132;DHT22;35149;51.196;6.204;2023-04-03T17:02:41;25.80;24.20
49132;DHT22;35149;51.196;6.204;2023-04-03T17:05:11;26.10;24.00
49132;DHT22;35149;51.196;6.204;2023-04-03T17:07:42;26.30;23.80
49132;DHT22;35149;51.196;6.204;2023-04-03T17:10:12;26.50;23.40
49132;DHT22;35149;51.196;6.204;2023-04-03T17:12:40;26.70;23.40
49132;DHT22;35149;51.196;6.204;2023-04-03T17:15:16;26.60;23.10
49132;DHT22;35149;51.196;6.204;2023-04-03T17:17:48;26.40;23.10
49132;DHT22;35149;51.196;6.204;2023-04-03T17:20:37;25.90;22.90
49132;DHT22;35149;51.196;6.204;2023-04-03T17:23:18;25.50;22.80
49132;DHT22;35149;51.196;6.204;2023-04-03T17:25:52;24.90;22.90
49132;DHT22;35149;51.196;6.204;2023-04-03T17:28:30;24.20;23.40
49132;DHT22;35149;51.196;6.204;2023-04-03T17:31:14;23.50;23.70
49132;DHT22;35149;51.196;6.204;2023-04-03T17:33:47;22.80;24.10
49132;DHT22;35149;51.196;6.204;2023-04-03T17:36:21;22.00;24.30
49132;DHT22;35149;51.196;6.204;2023-04-03T17:38:52;21.30;24.70
49132;DHT22;35149;51.196;6.204;2023-04-03T17:41:35;20.60;25.20
49132;DHT22;35149;51.196;6.204;2023-04-03T17:44:06;20.00;25.60
49132;DHT22;35149;51.196;6.204;2023-04-03T17:46:48;19.50;26.10
49132;DHT22;35149;51.196;6.204;2023-04-03T17:49:23;18.90;26.20
49132;DHT22;35149;51.196;6.204;2023-04-03T17:51:57;18.50;26.70
49132;DHT22;35149;51.196;6.204;2023-04-03T17:54:35;18.00;27.10
49132;DHT22;35149;51.196;6.204;2023-04-03T17:57:12;17.60;27.50
49132;DHT22;35149;51.196;6.204;2023-04-03T17:59:54;17.20;27.70
49132;DHT22;35149;51.196;6.204;2023-04-03T18:02:40;16.80;27.90
49132;DHT22;35149;51.196;6.204;2023-04-03T18:05:20;16.50;28.20
49132;DHT22;35149;51.196;6.204;2023-04-03T18:08:03;16.20;28.50